Latest Weather Observations for Camden

IDN60801

Issued at 10:05 am EST Wednesday 3 September 2014 (issued every 30 minutes, with the page automatically refreshed every 10 minutes)

About weather observations | Map of weather stations | Latest weather observations for NSW | Other Formats
Station Details ID: 068192 Name: CAMDEN AIRPORT AWS Lat: -34.04 Lon: 150.69 Height: 73.9 m
Data from the previous 72 hours. | See also: Recent months at Camden
Date/Time
EST
Temp
°C
App
Temp
°C
Dew
Point
Rel
Hum
%
Delta-T
°C
Wind Press
QNH
hPa
Press
MSL
hPa
Rain
since 9 am
mm
Dir
 
Spd
km/h
Gust
km/h
Spd
kts
Gust
kts
03/10:00am 14.4 6.9 1.0 40 5.8 SSW 30 48 16 26 1014.2 1014.2 0.0
03/09:30am 13.2 3.9 0.9 43 5.2 SSW 39 61 21 33 1014.3 1014.3 0.0
03/09:15am 13.1 5.0 0.8 43 5.2 SSW 33 56 18 30 1014.3 1014.3 0.0
03/09:00am 12.6 4.6 0.7 44 5.0 SSW 32 48 17 26 1014.5 1014.5 1.8
03/08:30am 12.1 4.9 0.8 46 4.7 SSW 28 43 15 23 1014.5 1014.5 1.8
03/08:17am 11.6 4.4 0.7 47 4.5 SW 28 52 15 28 1014.4 1014.4 1.8
03/08:00am 11.1 3.9 0.5 48 4.4 SW 28 39 15 21 1014.3 1014.3 1.8
03/07:30am 9.9 2.6 0.0 50 4.0 SW 28 44 15 24 1014.2 1014.2 1.8
03/07:00am 9.6 3.1 0.5 53 3.7 SW 24 41 13 22 1013.8 1013.8 1.8
03/06:30am 9.9 2.3 0.8 53 3.7 SW 30 41 16 22 1013.6 1013.6 1.8
03/06:00am 10.0 2.8 0.9 53 3.7 SW 28 37 15 20 1013.2 1013.2 1.8
03/05:36am 9.5 2.3 0.4 53 3.7 SW 28 46 15 25 1013.0 - 1.8
03/05:30am 9.9 2.3 0.5 52 3.8 SW 30 43 16 23 1013.0 - 1.8
03/05:00am 10.2 2.9 0.0 49 4.1 SW 28 39 15 21 1012.8 1012.8 1.8
03/04:30am 9.8 3.3 0.2 51 3.9 SW 24 35 13 19 1012.2 - 1.8
03/04:00am 10.3 3.1 0.6 51 4.0 SW 28 41 15 22 1012.0 1012.0 1.8
03/03:30am 10.5 3.3 0.8 51 4.0 SW 28 41 15 22 1011.6 - 1.8
03/03:00am 10.6 3.4 0.9 51 4.0 SW 28 41 15 22 1011.4 1011.4 1.8
03/02:30am 10.6 3.9 1.2 52 3.9 SW 26 35 14 19 1011.4 - 1.8
03/02:00am 10.7 3.6 1.3 52 3.9 SW 28 41 15 22 1011.9 1011.9 1.8
03/01:30am 10.6 3.9 1.4 53 3.9 SW 26 37 14 20 1012.2 - 1.8
03/01:00am 10.4 4.1 1.8 55 3.6 SW 24 35 13 19 1012.1 1012.1 1.8
03/12:30am 10.3 4.1 1.9 56 3.6 SW 24 35 13 19 1012.0 - 1.8
03/12:00am 10.5 4.0 2.4 57 3.5 SW 26 41 14 22 1012.2 1012.2 1.8
 
Date/Time
EST
Temp
°C
App
Temp
°C
Dew
Point
Rel
Hum
%
Delta-T
°C
Wind Press
QNH
hPa
Press
MSL
hPa
Rain
since 9 am
mm
Dir
 
Spd
km/h
Gust
km/h
Spd
kts
Gust
kts
02/11:30pm 9.8 4.2 3.5 65 2.8 SW 22 35 12 19 1011.9 - 1.6
02/11:00pm 9.6 4.1 4.2 69 2.4 SW 22 35 12 19 1012.1 1012.1 1.4
02/10:30pm 8.7 4.7 4.9 77 1.7 SW 15 24 8 13 1012.4 - 1.2
02/10:00pm 8.5 3.6 4.9 78 1.6 SW 20 26 11 14 1012.6 1012.6 1.0
02/09:30pm 8.6 3.2 4.6 76 1.8 SW 22 35 12 19 1012.7 - 0.8
02/09:00pm 8.5 2.3 4.1 74 1.9 SW 26 39 14 21 1013.0 1013.0 0.6
02/08:41pm 10.1 3.0 3.4 63 2.9 SW 30 50 16 27 1012.9 - 0.6
02/08:30pm 10.4 4.1 3.9 64 2.9 SW 26 37 14 20 1012.7 - 0.6
02/08:00pm 11.0 5.2 4.5 64 2.9 SSW 24 37 13 20 1012.1 1012.1 0.6
02/07:30pm 10.9 5.8 4.1 63 3.0 SSW 20 30 11 16 1011.7 - 0.6
02/07:00pm 11.8 6.9 4.3 60 3.4 SSW 19 30 10 16 1011.1 1011.1 0.6
02/06:30pm 11.8 6.9 4.1 59 3.5 SW 19 24 10 13 1010.8 - 0.6
02/06:00pm 12.6 7.8 4.8 59 3.6 SW 19 30 10 16 1010.3 1010.3 0.6
02/05:30pm 12.3 9.6 5.7 64 3.1 SSW 9 13 5 7 1009.8 - 0.6
02/05:00pm 12.0 7.9 6.1 67 2.8 WSW 17 26 9 14 1009.5 1009.5 0.6
02/04:30pm 13.1 8.7 6.5 64 3.2 SW 19 32 10 17 1009.5 - 0.6
02/04:00pm 12.1 8.4 7.8 75 2.1 WSW 17 22 9 12 1009.4 1009.4 0.2
02/03:30pm 12.1 7.5 6.4 68 2.7 WSW 20 30 11 16 1009.1 - 0.0
02/03:00pm 13.5 8.6 5.2 57 3.9 SSW 20 26 11 14 1008.7 1008.7 0.0
02/02:30pm 15.1 8.5 4.2 48 5.1 SW 28 37 15 20 1008.4 - 0.0
02/02:00pm 16.0 9.4 4.1 45 5.6 WSW 28 41 15 22 1007.9 1007.8 0.0
02/01:30pm 16.2 10.9 4.9 47 5.4 WSW 22 33 12 18 1007.9 - 0.0
02/01:00pm 15.6 9.0 4.3 47 5.3 WSW 28 41 15 22 1008.3 1008.2 0.0
02/12:30pm 15.8 10.1 4.8 48 5.2 WSW 24 33 13 18 1008.4 - 0.0
02/12:00pm 16.2 10.9 5.2 48 5.3 WSW 22 32 12 17 1008.8 1008.8 0.0
02/11:30am 15.3 10.4 4.9 50 4.9 WSW 20 32 11 17 1009.1 - 0.0
02/11:00am 15.3 10.7 5.5 52 4.7 SW 19 28 10 15 1009.0 1009.0 0.0
02/10:30am 15.1 9.9 5.6 53 4.5 WSW 22 30 12 16 1009.5 - 0.0
02/10:00am 15.0 10.2 5.5 53 4.5 W 20 24 11 13 1009.7 1009.7 0.0
02/09:30am 14.9 10.7 5.7 54 4.4 WSW 17 24 9 13 1009.5 - 0.0
02/09:00am 15.7 11.1 5.6 51 4.9 SW 19 24 10 13 1009.3 1009.3 0.0
02/08:30am 15.1 11.0 6.1 55 4.3 W 17 20 9 11 1009.4 - 0.0
02/08:00am 14.5 9.9 6.6 59 3.8 WSW 20 32 11 17 1009.9 1009.9 0.0
02/07:30am 12.6 12.0 7.5 71 2.5 CALM 0 0 0 0 1009.8 - 0.0
02/07:00am 12.9 11.0 6.7 66 3.0 W 6 7 3 4 1009.3 1009.3 0.0
02/06:30am 13.1 12.2 6.2 63 3.3 CALM 0 6 0 3 1009.1 - 0.0
02/06:00am 13.2 12.4 6.3 63 3.3 CALM 0 0 0 0 1009.0 1009.0 0.0
02/05:30am 13.6 12.6 5.5 58 3.8 CALM 0 0 0 0 1009.0 - 0.0
02/05:00am 14.1 13.0 5.2 55 4.2 CALM 0 0 0 0 1009.2 1009.2 0.0
02/04:30am 14.8 10.2 5.6 54 4.4 WSW 19 28 10 15 1009.1 - 0.0
02/04:00am 15.0 10.2 5.8 54 4.4 WSW 20 26 11 14 1009.2 1009.2 0.0
02/03:30am 15.2 10.7 6.0 54 4.4 SW 19 28 10 15 1009.1 - 0.0
02/03:00am 15.1 10.8 6.9 58 4.0 WSW 19 26 10 14 1009.3 1009.3 0.0
02/02:30am 11.6 11.3 8.6 82 1.5 CALM 0 0 0 0 1009.3 - 0.0
02/02:00am 12.1 11.5 8.9 81 1.6 SSW 2 6 1 3 1009.1 1009.1 0.0
02/01:30am 12.2 11.6 9.0 81 1.6 S 2 11 1 6 1009.4 - 0.0
02/01:00am 12.3 12.1 9.1 81 1.6 CALM 0 0 0 0 1009.4 1009.4 0.0
02/12:30am 12.7 11.3 8.8 77 2.0 S 6 7 3 4 1009.6 - 0.0
02/12:00am 12.7 11.0 8.4 75 2.1 S 7 7 4 4 1009.8 1009.8 0.0
 
Date/Time
EST
Temp
°C
App
Temp
°C
Dew
Point
Rel
Hum
%
Delta-T
°C
Wind Press
QNH
hPa
Press
MSL
hPa
Rain
since 9 am
mm
Dir
 
Spd
km/h
Gust
km/h
Spd
kts
Gust
kts
01/11:30pm 13.6 12.5 6.9 64 3.3 N 2 6 1 3 1010.2 - 0.0
01/11:00pm 14.3 13.6 7.1 62 3.5 CALM 0 0 0 0 1010.6 1010.6 0.0
01/10:30pm 14.0 12.9 8.4 69 2.8 NNW 4 7 2 4 1010.8 - 0.0
01/10:00pm 14.2 13.5 6.8 61 3.6 CALM 0 0 0 0 1010.9 1010.9 0.0
01/09:30pm 15.0 13.8 6.6 57 4.1 WNW 2 7 1 4 1011.1 - 0.0
01/09:00pm 15.0 13.3 5.8 54 4.4 NW 4 7 2 4 1011.2 1011.2 0.0
01/08:30pm 15.5 13.4 6.5 55 4.4 NNW 7 9 4 5 1011.2 - 0.0
01/08:00pm 14.9 12.5 7.0 59 3.9 NNW 9 13 5 7 1011.6 1011.6 0.0
01/07:30pm 15.5 14.5 5.7 52 4.7 CALM 0 4 0 2 1011.5 - 0.0
01/07:00pm 16.8 14.2 6.0 49 5.3 N 9 11 5 6 1011.1 1011.1 0.0
01/06:30pm 17.4 14.1 6.3 48 5.5 NNW 13 15 7 8 1011.0 - 0.0
01/06:00pm 18.4 15.1 6.3 45 6.0 NNW 13 13 7 7 1010.7 1010.7 0.0
01/05:30pm 19.5 15.8 6.3 42 6.6 NNW 15 19 8 10 1010.5 - 0.0
01/05:00pm 20.8 17.7 7.1 41 7.0 N 13 20 7 11 1010.3 1010.3 0.0
01/04:30pm 21.3 17.8 7.2 40 7.3 N 15 19 8 10 1010.1 - 0.0
01/04:00pm 21.9 19.7 7.7 40 7.4 NNE 9 17 5 9 1010.1 1010.1 0.0
01/03:30pm 22.5 19.4 7.1 37 8.0 NE 13 15 7 8 1010.2 - 0.0
01/03:00pm 22.6 19.4 6.8 36 8.1 NE 13 20 7 11 1010.5 1010.5 0.0
01/02:30pm 22.8 18.9 7.0 36 8.2 NE 17 24 9 13 1010.6 - 0.0
01/02:00pm 22.7 19.0 6.5 35 8.3 NNE 15 22 8 12 1011.2 1011.2 0.0
01/01:30pm 21.4 18.0 7.6 41 7.2 NNE 15 19 8 10 1011.8 - 0.0
01/01:00pm 21.7 18.7 7.5 40 7.4 NE 13 19 7 10 1012.3 1012.3 0.0
01/12:30pm 22.0 20.2 7.0 38 7.7 NE 6 11 3 6 1013.0 - 0.0
01/12:00pm 21.2 18.7 8.1 43 6.9 N 11 15 6 8 1013.6 1013.6 0.0
01/11:30am 20.8 19.3 9.1 47 6.2 N 7 11 4 6 1014.1 - 0.0
01/11:00am 19.2 17.1 9.9 55 5.0 ENE 11 13 6 7 1014.5 1014.5 0.0
01/10:30am 18.2 16.4 9.5 57 4.6 ENE 9 13 5 7 1015.0 - 0.0
01/10:00am 15.9 15.4 9.3 65 3.4 NNW 2 6 1 3 1016.1 1016.0 0.0
01/09:30am 14.1 13.4 8.5 69 2.8 NE 2 7 1 4 1016.4 - 0.0
01/09:00am 11.6 11.7 10.0 90 0.8 CALM 0 0 0 0 1017.1 1017.1 0.2
01/08:36am 9.8 9.8 9.7 99 0.1 CALM 0 0 0 0 1017.3 - 0.2
01/08:30am 9.7 9.6 9.6 99 0.1 CALM 0 0 0 0 1017.3 - 0.2
01/08:25am 9.2 9.0 9.1 99 0.0 CALM 0 0 0 0 1017.3 - 0.2
01/08:06am 8.2 7.8 8.1 99 0.0 CALM 0 0 0 0 1017.5 - 0.2
01/08:00am 7.6 7.0 7.5 99 0.0 CALM 0 0 0 0 1017.5 1017.5 0.2
01/07:34am 6.9 6.2 6.8 99 0.0 CALM 0 0 0 0 1017.4 - 0.2
01/07:33am 6.9 6.2 6.8 99 0.0 CALM 0 0 0 0 1017.4 - 0.2
01/07:30am 6.9 6.2 6.8 99 0.0 CALM 0 0 0 0 1017.4 - 0.2
01/07:29am 6.9 6.2 6.8 99 0.0 CALM 0 0 0 0 1017.4 - 0.2
01/07:28am 6.9 6.2 6.8 99 0.0 CALM 0 0 0 0 1017.4 - 0.2
01/07:24am 7.0 6.3 6.9 99 0.0 CALM 0 0 0 0 1017.3 - 0.2
01/07:22am 6.9 6.2 6.8 99 0.0 CALM 0 0 0 0 1017.2 - 0.2
01/07:20am 6.8 6.0 6.7 99 0.0 CALM 0 0 0 0 1017.2 - 0.2
01/07:07am 6.2 5.3 6.1 99 0.0 CALM 0 0 0 0 1017.2 - 0.0
01/07:06am 6.1 5.2 6.0 99 0.0 CALM 0 0 0 0 1017.2 - 0.0
01/07:03am 6.0 5.1 5.9 99 0.0 CALM 0 0 0 0 1017.2 - 0.0
01/07:00am 5.8 4.8 5.7 99 0.0 CALM 0 0 0 0 1017.2 1017.2 0.0
01/06:30am 5.2 4.1 5.1 99 0.0 CALM 0 0 0 0 1016.9 - 0.0
01/06:00am 5.1 4.0 5.0 99 0.0 CALM 0 0 0 0 1016.8 1016.8 0.0
01/05:51am 5.1 4.0 5.0 99 0.0 CALM 0 0 0 0 1016.7 - 0.0
01/05:30am 5.6 4.6 5.5 99 0.0 CALM 0 0 0 0 1016.6 - 0.0
01/05:00am 5.5 4.5 5.4 99 0.0 CALM 0 0 0 0 1016.6 1016.6 0.0
01/04:30am 6.0 5.0 5.7 98 0.1 CALM 0 0 0 0 1016.4 - 0.0
01/04:00am 6.7 5.9 6.4 98 0.1 CALM 0 0 0 0 1016.3 1016.3 0.0
01/03:30am 7.1 6.4 6.8 98 0.1 CALM 0 0 0 0 1016.3 - 0.0
01/03:00am 7.1 6.3 6.7 97 0.2 CALM 0 0 0 0 1016.4 1016.4 0.0
01/02:44am 7.4 6.7 7.0 97 0.2 CALM 0 0 0 0 1016.4 - 0.0
01/02:30am 8.2 7.7 7.9 98 0.1 CALM 0 0 0 0 1016.6 - 0.0
01/02:12am 8.4 8.0 8.1 98 0.1 CALM 0 0 0 0 1016.8 - 0.0
01/02:00am 8.7 8.4 8.6 99 0.0 CALM 0 0 0 0 1017.0 1017.0 0.0
01/01:56am 8.8 8.5 8.7 99 0.0 CALM 0 0 0 0 1017.1 - 0.0
01/01:34am 9.0 8.8 8.9 99 0.0 CALM 0 0 0 0 1017.2 - 0.0
01/01:30am 8.9 8.6 8.8 99 0.0 CALM 0 0 0 0 1017.3 - 0.0
01/01:01am 8.1 7.6 7.8 98 0.1 CALM 0 0 0 0 1017.6 - 0.0
01/01:00am 8.1 7.6 7.8 98 0.1 CALM 0 0 0 0 1017.6 1017.6 0.0
01/12:54am 7.9 7.3 7.6 98 0.1 CALM 0 0 0 0 1017.7 - 0.0
01/12:43am 8.2 7.3 7.9 98 0.1 S 2 6 1 3 1017.7 - 0.0
01/12:30am 8.2 6.6 7.9 98 0.1 S 6 6 3 3 1017.7 - 0.0
01/12:29am 8.3 6.7 8.0 98 0.1 S 6 6 3 3 1017.7 - 0.0
01/12:14am 8.2 6.9 7.8 97 0.2 S 4 6 2 3 1017.9 - 0.0
01/12:00am 8.1 6.4 7.5 96 0.3 S 6 7 3 4 1018.0 1018.0 0.0
 
Date/Time
EST
Temp
°C
App
Temp
°C
Dew
Point
Rel
Hum
%
Delta-T
°C
Wind Press
QNH
hPa
Press
MSL
hPa
Rain
since 9 am
mm
Dir
 
Spd
km/h
Gust
km/h
Spd
kts
Gust
kts
31/11:30pm 9.0 8.7 8.5 97 0.2 CALM 0 0 0 0 1018.3 - 0.0
31/11:29pm 9.1 8.8 8.6 97 0.2 CALM 0 0 0 0 1018.3 - 0.0
31/11:09pm 9.3 9.0 8.7 96 0.3 CALM 0 0 0 0 1018.5 - 0.0
31/11:08pm 9.2 8.9 8.6 96 0.3 CALM 0 0 0 0 1018.5 - 0.0
31/11:00pm 9.3 9.0 8.8 97 0.2 CALM 0 0 0 0 1018.5 1018.5 0.0
31/10:30pm 9.8 9.6 9.2 96 0.3 CALM 0 0 0 0 1018.4 - 0.0
31/10:14pm 9.7 9.4 8.8 94 0.4 CALM 0 0 0 0 1018.5 - 0.0
31/10:02pm 9.7 9.4 8.6 93 0.5 CALM 0 0 0 0 1018.6 - 0.0
31/10:00pm 9.7 9.4 8.6 93 0.5 CALM 0 0 0 0 1018.6 1018.6 0.0
31/09:30pm 10.2 9.9 8.8 91 0.7 CALM 0 0 0 0 1018.6 - 0.0
31/09:00pm 11.0 10.9 9.6 91 0.7 CALM 0 0 0 0 1018.6 1018.6 0.0
31/08:30pm 11.3 11.1 9.0 86 1.1 CALM 0 0 0 0 1018.6 - 0.0
31/08:00pm 12.2 12.2 9.8 85 1.2 CALM 0 0 0 0 1018.7 1018.7 0.0
31/07:30pm 13.1 12.6 9.4 78 1.9 SSE 2 6 1 3 1018.4 - 0.0
31/07:00pm 14.3 12.9 9.7 74 2.4 SE 7 11 4 6 1018.0 1018.0 0.0
31/06:30pm 14.9 14.9 9.7 71 2.7 CALM 0 7 0 4 1017.6 - 0.0
31/06:00pm 15.7 14.0 9.8 68 3.1 E 9 15 5 8 1017.2 1017.2 0.0
31/05:30pm 17.0 14.6 10.1 64 3.7 E 13 19 7 10 1016.9 - 0.0
31/05:00pm 18.5 15.4 10.3 59 4.4 E 17 26 9 14 1016.6 1016.6 0.0
31/04:30pm 19.9 16.7 9.8 52 5.4 ENE 17 22 9 12 1016.4 - 0.0
31/04:00pm 21.9 19.9 4.5 32 8.5 W 4 9 2 5 1016.3 1016.3 0.0
31/03:30pm 21.9 19.0 4.9 33 8.4 SE 9 13 5 7 1016.5 - 0.0
31/03:00pm 22.3 19.9 5.3 33 8.5 SSW 7 15 4 8 1016.6 1016.6 0.0
31/02:30pm 21.3 18.7 4.4 33 8.2 SSE 7 15 4 8 1016.9 - 0.0
31/02:00pm 21.4 18.2 4.9 34 8.1 S 11 17 6 9 1017.2 1017.2 0.0
31/01:30pm 21.0 18.7 5.8 37 7.6 NW 7 13 4 7 1017.7 - 0.0
31/01:00pm 21.3 19.6 7.5 41 7.1 WSW 6 11 3 6 1018.2 1018.2 0.0
31/12:30pm 20.1 17.8 7.5 44 6.5 WSW 9 22 5 12 1018.7 - 0.0
31/12:00pm 20.2 18.6 8.8 48 6.0 N 7 11 4 6 1019.2 1019.2 0.0
31/11:30am 19.0 17.2 7.8 48 5.7 SSW 7 11 4 6 1019.8 - 0.0
31/11:00am 18.9 17.4 8.6 51 5.3 W 6 11 3 6 1020.3 1020.4 0.0
31/10:30am 17.8 16.2 8.1 53 5.0 SSW 6 13 3 7 1020.6 - 0.0

Other Formats:

Comma delimited format used in spreadsheet applications
http://www.bom.gov.au/fwo/IDN60801/IDN60801.94755.axf

JavaScript Object Notation format (JSON) in row-major order
http://www.bom.gov.au/fwo/IDN60801/IDN60801.94755.json